sensor_id;sensor_type;location;lat;lon;timestamp;temperature;humidity
66608;DHT22;53462;39.616;8.824;2022-08-06T00:02:14;28.00;65.90
66608;DHT22;53462;39.616;8.824;2022-08-06T00:04:40;28.00;65.70
66608;DHT22;53462;39.616;8.824;2022-08-06T00:07:06;28.00;65.50
66608;DHT22;53462;39.616;8.824;2022-08-06T00:09:32;28.00;65.40
66608;DHT22;53462;39.616;8.824;2022-08-06T00:12:03;28.00;65.50
66608;DHT22;53462;39.616;8.824;2022-08-06T00:14:30;28.00;65.60
66608;DHT22;53462;39.616;8.824;2022-08-06T00:16:57;28.00;65.40
66608;DHT22;53462;39.616;8.824;2022-08-06T00:19:24;28.00;65.00
66608;DHT22;53462;39.616;8.824;2022-08-06T00:21:50;28.00;65.20
66608;DHT22;53462;39.616;8.824;2022-08-06T00:24:17;27.90;65.60
66608;DHT22;53462;39.616;8.824;2022-08-06T00:26:43;27.90;65.70
66608;DHT22;53462;39.616;8.824;2022-08-06T00:29:09;27.80;66.10
66608;DHT22;53462;39.616;8.824;2022-08-06T00:31:35;27.80;66.50
66608;DHT22;53462;39.616;8.824;2022-08-06T00:34:01;27.80;66.40
66608;DHT22;53462;39.616;8.824;2022-08-06T00:36:31;27.80;66.30
66608;DHT22;53462;39.616;8.824;2022-08-06T00:39:00;27.70;66.40
66608;DHT22;53462;39.616;8.824;2022-08-06T00:41:27;27.60;66.30
66608;DHT22;53462;39.616;8.824;2022-08-06T00:43:53;27.70;65.20
66608;DHT22;53462;39.616;8.824;2022-08-06T00:46:22;27.60;65.70
66608;DHT22;53462;39.616;8.824;2022-08-06T00:48:49;27.50;66.00
66608;DHT22;53462;39.616;8.824;2022-08-06T00:51:16;27.40;66.70
66608;DHT22;53462;39.616;8.824;2022-08-06T00:53:43;27.40;67.10
66608;DHT22;53462;39.616;8.824;2022-08-06T00:56:09;27.30;67.00
66608;DHT22;53462;39.616;8.824;2022-08-06T00:58:35;27.20;67.00
66608;DHT22;53462;39.616;8.824;2022-08-06T01:01:01;27.10;67.30
66608;DHT22;53462;39.616;8.824;2022-08-06T01:03:27;27.10;67.70
66608;DHT22;53462;39.616;8.824;2022-08-06T01:05:54;27.00;68.20
66608;DHT22;53462;39.616;8.824;2022-08-06T01:08:21;26.80;68.80
66608;DHT22;53462;39.616;8.824;2022-08-06T01:10:47;26.70;69.20
66608;DHT22;53462;39.616;8.824;2022-08-06T01:13:13;26.70;69.40
66608;DHT22;53462;39.616;8.824;2022-08-06T01:15:40;26.60;69.60
66608;DHT22;53462;39.616;8.824;2022-08-06T01:18:18;26.60;69.70
66608;DHT22;53462;39.616;8.824;2022-08-06T01:21:10;26.50;69.90
66608;DHT22;53462;39.616;8.824;2022-08-06T01:24:12;26.50;69.80
66608;DHT22;53462;39.616;8.824;2022-08-06T01:26:53;26.50;69.70
66608;DHT22;53462;39.616;8.824;2022-08-06T01:29:26;26.50;69.60
66608;DHT22;53462;39.616;8.824;2022-08-06T01:32:02;26.40;69.60
66608;DHT22;53462;39.616;8.824;2022-08-06T01:34:41;26.30;69.60
66608;DHT22;53462;39.616;8.824;2022-08-06T01:37:25;26.20;68.80
66608;DHT22;53462;39.616;8.824;2022-08-06T01:39:56;26.00;69.50
66608;DHT22;53462;39.616;8.824;2022-08-06T01:42:25;26.00;69.60
66608;DHT22;53462;39.616;8.824;2022-08-06T01:44:54;26.10;69.40
66608;DHT22;53462;39.616;8.824;2022-08-06T01:47:24;26.10;69.20
66608;DHT22;53462;39.616;8.824;2022-08-06T01:49:55;26.00;69.00
66608;DHT22;53462;39.616;8.824;2022-08-06T01:52:24;25.90;69.40
66608;DHT22;53462;39.616;8.824;2022-08-06T01:54:52;25.80;69.70
66608;DHT22;53462;39.616;8.824;2022-08-06T01:57:22;25.70;69.60
66608;DHT22;53462;39.616;8.824;2022-08-06T01:59:50;25.70;69.60
66608;DHT22;53462;39.616;8.824;2022-08-06T02:02:22;25.70;69.40
66608;DHT22;53462;39.616;8.824;2022-08-06T02:04:55;25.70;69.00
66608;DHT22;53462;39.616;8.824;2022-08-06T02:07:25;25.60;69.10
66608;DHT22;53462;39.616;8.824;2022-08-06T02:09:53;25.80;68.50
66608;DHT22;53462;39.616;8.824;2022-08-06T02:12:22;25.90;68.20
66608;DHT22;53462;39.616;8.824;2022-08-06T02:14:53;26.10;67.80
66608;DHT22;53462;39.616;8.824;2022-08-06T02:17:25;26.00;68.20
66608;DHT22;53462;39.616;8.824;2022-08-06T02:19:53;26.00;68.50
66608;DHT22;53462;39.616;8.824;2022-08-06T02:22:22;26.10;68.60
66608;DHT22;53462;39.616;8.824;2022-08-06T02:24:49;26.20;68.20
66608;DHT22;53462;39.616;8.824;2022-08-06T02:27:15;26.30;68.20
66608;DHT22;53462;39.616;8.824;2022-08-06T02:29:44;26.50;67.90
66608;DHT22;53462;39.616;8.824;2022-08-06T02:32:11;26.70;67.30
66608;DHT22;53462;39.616;8.824;2022-08-06T02:34:39;26.70;67.10
66608;DHT22;53462;39.616;8.824;2022-08-06T02:37:17;26.80;67.20
66608;DHT22;53462;39.616;8.824;2022-08-06T02:39:48;26.80;67.20
66608;DHT22;53462;39.616;8.824;2022-08-06T02:42:29;26.80;67.30
66608;DHT22;53462;39.616;8.824;2022-08-06T02:47:39;26.80;67.00
66608;DHT22;53462;39.616;8.824;2022-08-06T02:50:09;26.90;66.70
66608;DHT22;53462;39.616;8.824;2022-08-06T02:53:10;27.00;66.50
66608;DHT22;53462;39.616;8.824;2022-08-06T02:55:40;26.90;66.70
66608;DHT22;53462;39.616;8.824;2022-08-06T03:00:36;26.90;67.30
66608;DHT22;53462;39.616;8.824;2022-08-06T03:03:04;26.80;67.70
66608;DHT22;53462;39.616;8.824;2022-08-06T03:05:34;26.80;67.80
66608;DHT22;53462;39.616;8.824;2022-08-06T03:08:03;26.70;68.40
66608;DHT22;53462;39.616;8.824;2022-08-06T03:10:33;26.70;68.20
66608;DHT22;53462;39.616;8.824;2022-08-06T03:13:00;26.80;67.90
66608;DHT22;53462;39.616;8.824;2022-08-06T03:15:28;26.70;67.80
66608;DHT22;53462;39.616;8.824;2022-08-06T03:17:55;26.70;67.70
66608;DHT22;53462;39.616;8.824;2022-08-06T03:20:25;26.60;67.90
66608;DHT22;53462;39.616;8.824;2022-08-06T03:22:55;26.50;68.10
66608;DHT22;53462;39.616;8.824;2022-08-06T03:25:22;26.30;68.40
66608;DHT22;53462;39.616;8.824;2022-08-06T03:27:49;26.30;68.60
66608;DHT22;53462;39.616;8.824;2022-08-06T03:30:18;26.20;68.50
66608;DHT22;53462;39.616;8.824;2022-08-06T03:32:45;26.10;68.70
66608;DHT22;53462;39.616;8.824;2022-08-06T03:35:12;26.00;68.90
66608;DHT22;53462;39.616;8.824;2022-08-06T03:37:39;26.00;69.10
66608;DHT22;53462;39.616;8.824;2022-08-06T03:40:05;26.00;69.50
66608;DHT22;53462;39.616;8.824;2022-08-06T03:42:33;25.80;70.00
66608;DHT22;53462;39.616;8.824;2022-08-06T03:45:00;25.90;70.20
66608;DHT22;53462;39.616;8.824;2022-08-06T03:47:30;25.70;70.40
66608;DHT22;53462;39.616;8.824;2022-08-06T03:52:39;25.50;69.90
66608;DHT22;53462;39.616;8.824;2022-08-06T03:55:08;25.50;69.80
66608;DHT22;53462;39.616;8.824;2022-08-06T03:57:39;25.50;68.70
66608;DHT22;53462;39.616;8.824;2022-08-06T04:00:08;25.60;67.90
66608;DHT22;53462;39.616;8.824;2022-08-06T04:02:46;25.70;67.10
66608;DHT22;53462;39.616;8.824;2022-08-06T04:05:20;25.70;67.10
66608;DHT22;53462;39.616;8.824;2022-08-06T04:07:48;25.80;66.80
66608;DHT22;53462;39.616;8.824;2022-08-06T04:10:16;25.80;66.90
66608;DHT22;53462;39.616;8.824;2022-08-06T04:12:43;25.80;66.90
66608;DHT22;53462;39.616;8.824;2022-08-06T04:15:12;25.80;67.40
66608;DHT22;53462;39.616;8.824;2022-08-06T04:17:39;25.70;67.60
66608;DHT22;53462;39.616;8.824;2022-08-06T04:20:10;25.80;67.40
66608;DHT22;53462;39.616;8.824;2022-08-06T04:22:37;25.80;67.00
66608;DHT22;53462;39.616;8.824;2022-08-06T04:25:03;25.70;67.10
66608;DHT22;53462;39.616;8.824;2022-08-06T04:27:31;25.50;67.10
66608;DHT22;53462;39.616;8.824;2022-08-06T04:29:57;25.30;67.50
66608;DHT22;53462;39.616;8.824;2022-08-06T04:32:25;25.10;68.00
66608;DHT22;53462;39.616;8.824;2022-08-06T04:34:52;25.10;68.40
66608;DHT22;53462;39.616;8.824;2022-08-06T04:37:20;25.10;68.60
66608;DHT22;53462;39.616;8.824;2022-08-06T04:39:46;25.10;68.80
66608;DHT22;53462;39.616;8.824;2022-08-06T04:42:13;25.20;68.60
66608;DHT22;53462;39.616;8.824;2022-08-06T04:44:39;25.20;68.80
66608;DHT22;53462;39.616;8.824;2022-08-06T04:47:06;25.30;68.80
66608;DHT22;53462;39.616;8.824;2022-08-06T04:49:32;25.40;68.90
66608;DHT22;53462;39.616;8.824;2022-08-06T04:51:58;25.40;69.20
66608;DHT22;53462;39.616;8.824;2022-08-06T04:54:24;25.50;69.30
66608;DHT22;53462;39.616;8.824;2022-08-06T04:56:50;25.50;69.30
66608;DHT22;53462;39.616;8.824;2022-08-06T04:59:17;25.40;69.80
66608;DHT22;53462;39.616;8.824;2022-08-06T05:01:43;25.40;70.10
66608;DHT22;53462;39.616;8.824;2022-08-06T05:04:09;25.30;70.10
66608;DHT22;53462;39.616;8.824;2022-08-06T05:09:33;25.00;71.60
66608;DHT22;53462;39.616;8.824;2022-08-06T05:12:04;25.10;71.20
66608;DHT22;53462;39.616;8.824;2022-08-06T05:14:49;25.10;71.30
66608;DHT22;53462;39.616;8.824;2022-08-06T05:17:19;25.10;70.90
66608;DHT22;53462;39.616;8.824;2022-08-06T05:19:59;25.10;71.30
66608;DHT22;53462;39.616;8.824;2022-08-06T05:22:27;25.10;71.30
66608;DHT22;53462;39.616;8.824;2022-08-06T05:24:55;25.30;71.30
66608;DHT22;53462;39.616;8.824;2022-08-06T05:27:21;25.40;71.00
66608;DHT22;53462;39.616;8.824;2022-08-06T05:29:47;25.40;70.80
66608;DHT22;53462;39.616;8.824;2022-08-06T05:32:13;25.60;70.60
66608;DHT22;53462;39.616;8.824;2022-08-06T05:34:39;25.80;70.00
66608;DHT22;53462;39.616;8.824;2022-08-06T05:37:05;25.80;69.90
66608;DHT22;53462;39.616;8.824;2022-08-06T05:39:31;25.90;69.80
66608;DHT22;53462;39.616;8.824;2022-08-06T05:41:57;26.00;69.60
66608;DHT22;53462;39.616;8.824;2022-08-06T05:44:23;26.10;69.00
66608;DHT22;53462;39.616;8.824;2022-08-06T05:46:52;26.10;68.70
66608;DHT22;53462;39.616;8.824;2022-08-06T05:49:21;26.30;67.70
66608;DHT22;53462;39.616;8.824;2022-08-06T05:52:15;26.40;67.80
66608;DHT22;53462;39.616;8.824;2022-08-06T05:55:02;26.60;67.30
66608;DHT22;53462;39.616;8.824;2022-08-06T06:00:02;26.60;67.00
66608;DHT22;53462;39.616;8.824;2022-08-06T06:02:37;26.90;66.20
66608;DHT22;53462;39.616;8.824;2022-08-06T06:05:05;27.20;64.30
66608;DHT22;53462;39.616;8.824;2022-08-06T06:07:31;27.60;62.50
66608;DHT22;53462;39.616;8.824;2022-08-06T06:09:58;28.00;61.80
66608;DHT22;53462;39.616;8.824;2022-08-06T06:12:24;28.30;61.00
66608;DHT22;53462;39.616;8.824;2022-08-06T06:14:51;28.60;60.10
66608;DHT22;53462;39.616;8.824;2022-08-06T06:17:48;28.60;59.70
66608;DHT22;53462;39.616;8.824;2022-08-06T06:20:51;28.00;62.30
66608;DHT22;53462;39.616;8.824;2022-08-06T06:23:28;27.90;62.90
66608;DHT22;53462;39.616;8.824;2022-08-06T06:26:03;27.90;61.70
66608;DHT22;53462;39.616;8.824;2022-08-06T06:28:40;28.00;61.50
66608;DHT22;53462;39.616;8.824;2022-08-06T06:31:44;28.10;61.30
66608;DHT22;53462;39.616;8.824;2022-08-06T06:34:17;28.10;61.20
66608;DHT22;53462;39.616;8.824;2022-08-06T06:36:53;28.20;62.20
66608;DHT22;53462;39.616;8.824;2022-08-06T06:39:38;28.40;61.70
66608;DHT22;53462;39.616;8.824;2022-08-06T06:42:19;28.50;61.20
66608;DHT22;53462;39.616;8.824;2022-08-06T06:45:01;28.70;62.10
66608;DHT22;53462;39.616;8.824;2022-08-06T06:48:13;29.10;61.60
66608;DHT22;53462;39.616;8.824;2022-08-06T06:50:45;29.20;62.40
66608;DHT22;53462;39.616;8.824;2022-08-06T06:53:13;29.20;62.30
66608;DHT22;53462;39.616;8.824;2022-08-06T06:55:45;29.20;62.40
66608;DHT22;53462;39.616;8.824;2022-08-06T06:58:23;29.20;62.10
66608;DHT22;53462;39.616;8.824;2022-08-06T07:00:52;29.20;61.30
66608;DHT22;53462;39.616;8.824;2022-08-06T07:03:20;29.40;60.60
66608;DHT22;53462;39.616;8.824;2022-08-06T07:05:49;29.60;60.00
66608;DHT22;53462;39.616;8.824;2022-08-06T07:08:18;29.60;59.70
66608;DHT22;53462;39.616;8.824;2022-08-06T07:10:45;29.70;58.80
66608;DHT22;53462;39.616;8.824;2022-08-06T07:13:13;29.70;58.40
66608;DHT22;53462;39.616;8.824;2022-08-06T07:15:41;30.00;56.80
66608;DHT22;53462;39.616;8.824;2022-08-06T07:18:08;29.90;57.30
66608;DHT22;53462;39.616;8.824;2022-08-06T07:20:35;30.10;55.30
66608;DHT22;53462;39.616;8.824;2022-08-06T07:23:05;30.20;55.50
66608;DHT22;53462;39.616;8.824;2022-08-06T07:25:36;30.20;54.70
66608;DHT22;53462;39.616;8.824;2022-08-06T07:28:04;30.50;53.30
66608;DHT22;53462;39.616;8.824;2022-08-06T07:30:31;30.70;53.50
66608;DHT22;53462;39.616;8.824;2022-08-06T07:33:02;31.00;53.30
66608;DHT22;53462;39.616;8.824;2022-08-06T07:35:29;31.20;50.40
66608;DHT22;53462;39.616;8.824;2022-08-06T07:38:00;31.30;49.10
66608;DHT22;53462;39.616;8.824;2022-08-06T07:40:32;31.50;48.70
66608;DHT22;53462;39.616;8.824;2022-08-06T07:43:43;31.30;48.10
66608;DHT22;53462;39.616;8.824;2022-08-06T07:46:08;31.40;47.50
66608;DHT22;53462;39.616;8.824;2022-08-06T07:48:47;31.70;47.30
66608;DHT22;53462;39.616;8.824;2022-08-06T07:51:15;31.90;46.80
66608;DHT22;53462;39.616;8.824;2022-08-06T07:53:43;32.80;45.70
66608;DHT22;53462;39.616;8.824;2022-08-06T07:56:11;32.60;45.10
66608;DHT22;53462;39.616;8.824;2022-08-06T07:58:37;32.70;43.90
66608;DHT22;53462;39.616;8.824;2022-08-06T08:01:04;32.80;42.50
66608;DHT22;53462;39.616;8.824;2022-08-06T08:03:32;32.90;43.60
66608;DHT22;53462;39.616;8.824;2022-08-06T08:06:19;32.60;45.00
66608;DHT22;53462;39.616;8.824;2022-08-06T08:09:03;33.00;45.20
66608;DHT22;53462;39.616;8.824;2022-08-06T08:11:31;33.10;44.20
66608;DHT22;53462;39.616;8.824;2022-08-06T08:13:58;33.20;44.60
66608;DHT22;53462;39.616;8.824;2022-08-06T08:16:25;33.30;44.80
66608;DHT22;53462;39.616;8.824;2022-08-06T08:18:52;33.20;46.90
66608;DHT22;53462;39.616;8.824;2022-08-06T08:21:19;33.20;48.20
66608;DHT22;53462;39.616;8.824;2022-08-06T08:23:47;33.40;47.90
66608;DHT22;53462;39.616;8.824;2022-08-06T08:26:13;33.50;46.00
66608;DHT22;53462;39.616;8.824;2022-08-06T08:28:39;33.70;44.40
66608;DHT22;53462;39.616;8.824;2022-08-06T08:31:05;33.60;45.30
66608;DHT22;53462;39.616;8.824;2022-08-06T08:33:33;33.60;46.00
66608;DHT22;53462;39.616;8.824;2022-08-06T08:36:00;33.60;44.70
66608;DHT22;53462;39.616;8.824;2022-08-06T08:38:34;33.80;43.70
66608;DHT22;53462;39.616;8.824;2022-08-06T08:41:08;33.80;44.10
66608;DHT22;53462;39.616;8.824;2022-08-06T08:43:48;34.10;44.10
66608;DHT22;53462;39.616;8.824;2022-08-06T08:46:15;34.30;41.60
66608;DHT22;53462;39.616;8.824;2022-08-06T08:48:43;34.30;41.90
66608;DHT22;53462;39.616;8.824;2022-08-06T08:51:11;34.60;44.60
66608;DHT22;53462;39.616;8.824;2022-08-06T08:53:48;34.90;41.90
66608;DHT22;53462;39.616;8.824;2022-08-06T08:56:14;35.00;39.70
66608;DHT22;53462;39.616;8.824;2022-08-06T08:58:41;35.10;39.50
66608;DHT22;53462;39.616;8.824;2022-08-06T09:01:08;35.20;38.30
66608;DHT22;53462;39.616;8.824;2022-08-06T09:03:36;35.30;37.30
66608;DHT22;53462;39.616;8.824;2022-08-06T09:06:04;35.50;38.00
66608;DHT22;53462;39.616;8.824;2022-08-06T09:08:31;35.40;35.80
66608;DHT22;53462;39.616;8.824;2022-08-06T09:10:58;35.40;35.70
66608;DHT22;53462;39.616;8.824;2022-08-06T09:13:26;35.50;35.50
66608;DHT22;53462;39.616;8.824;2022-08-06T09:15:52;35.60;34.80
66608;DHT22;53462;39.616;8.824;2022-08-06T09:18:23;35.50;35.00
66608;DHT22;53462;39.616;8.824;2022-08-06T09:20:49;35.70;33.80
66608;DHT22;53462;39.616;8.824;2022-08-06T09:23:15;35.50;32.70
66608;DHT22;53462;39.616;8.824;2022-08-06T09:25:44;35.70;33.80
66608;DHT22;53462;39.616;8.824;2022-08-06T09:31:03;35.70;34.00
66608;DHT22;53462;39.616;8.824;2022-08-06T09:33:31;35.90;34.30
66608;DHT22;53462;39.616;8.824;2022-08-06T09:36:03;36.00;33.60
66608;DHT22;53462;39.616;8.824;2022-08-06T09:38:30;35.70;34.10
66608;DHT22;53462;39.616;8.824;2022-08-06T09:41:10;35.80;34.60
66608;DHT22;53462;39.616;8.824;2022-08-06T09:43:37;36.10;33.70
66608;DHT22;53462;39.616;8.824;2022-08-06T09:46:04;36.30;33.70
66608;DHT22;53462;39.616;8.824;2022-08-06T09:48:31;36.60;33.00
66608;DHT22;53462;39.616;8.824;2022-08-06T09:50:57;36.70;33.20
66608;DHT22;53462;39.616;8.824;2022-08-06T09:53:23;36.70;34.30
66608;DHT22;53462;39.616;8.824;2022-08-06T09:55:51;36.60;32.90
66608;DHT22;53462;39.616;8.824;2022-08-06T09:58:28;36.80;32.90
66608;DHT22;53462;39.616;8.824;2022-08-06T10:00:55;37.10;31.40
66608;DHT22;53462;39.616;8.824;2022-08-06T10:03:21;37.10;30.50
66608;DHT22;53462;39.616;8.824;2022-08-06T10:05:50;37.10;31.30
66608;DHT22;53462;39.616;8.824;2022-08-06T10:08:27;37.20;31.20
66608;DHT22;53462;39.616;8.824;2022-08-06T10:10:53;37.40;31.00
66608;DHT22;53462;39.616;8.824;2022-08-06T10:13:26;36.80;31.30
66608;DHT22;53462;39.616;8.824;2022-08-06T10:15:59;37.00;32.00
66608;DHT22;53462;39.616;8.824;2022-08-06T10:21:07;37.50;31.60
66608;DHT22;53462;39.616;8.824;2022-08-06T10:23:34;37.80;32.20
66608;DHT22;53462;39.616;8.824;2022-08-06T10:26:06;38.00;30.70
66608;DHT22;53462;39.616;8.824;2022-08-06T10:28:34;38.10;31.70
66608;DHT22;53462;39.616;8.824;2022-08-06T10:31:06;37.90;31.10
66608;DHT22;53462;39.616;8.824;2022-08-06T10:36:09;38.10;31.20
66608;DHT22;53462;39.616;8.824;2022-08-06T10:38:37;38.10;30.80
66608;DHT22;53462;39.616;8.824;2022-08-06T10:41:07;38.20;30.10
66608;DHT22;53462;39.616;8.824;2022-08-06T10:43:38;38.20;30.80
66608;DHT22;53462;39.616;8.824;2022-08-06T10:46:13;37.80;30.00
66608;DHT22;53462;39.616;8.824;2022-08-06T10:48:43;38.30;29.70
66608;DHT22;53462;39.616;8.824;2022-08-06T10:51:11;38.30;30.50
66608;DHT22;53462;39.616;8.824;2022-08-06T10:53:44;38.30;30.20
66608;DHT22;53462;39.616;8.824;2022-08-06T10:56:12;38.40;29.90
66608;DHT22;53462;39.616;8.824;2022-08-06T10:58:40;38.40;29.10
66608;DHT22;53462;39.616;8.824;2022-08-06T11:01:14;38.30;31.50
66608;DHT22;53462;39.616;8.824;2022-08-06T11:14:55;38.60;31.10
66608;DHT22;53462;39.616;8.824;2022-08-06T11:17:21;38.80;32.20
66608;DHT22;53462;39.616;8.824;2022-08-06T11:19:48;38.90;31.90
66608;DHT22;53462;39.616;8.824;2022-08-06T11:22:37;39.10;30.40
66608;DHT22;53462;39.616;8.824;2022-08-06T11:25:06;38.90;29.90
66608;DHT22;53462;39.616;8.824;2022-08-06T11:27:48;38.90;30.90
66608;DHT22;53462;39.616;8.824;2022-08-06T11:30:15;39.30;30.20
66608;DHT22;53462;39.616;8.824;2022-08-06T11:32:48;39.40;29.60
66608;DHT22;53462;39.616;8.824;2022-08-06T11:41:17;39.60;30.00
66608;DHT22;53462;39.616;8.824;2022-08-06T12:02:45;39.50;31.60
66608;DHT22;53462;39.616;8.824;2022-08-06T12:05:00;39.40;32.00
66608;DHT22;53462;39.616;8.824;2022-08-06T12:07:33;39.80;30.60
66608;DHT22;53462;39.616;8.824;2022-08-06T12:12:45;39.50;30.80
66608;DHT22;53462;39.616;8.824;2022-08-06T12:17:59;39.40;31.20
66608;DHT22;53462;39.616;8.824;2022-08-06T12:20:31;39.60;31.20
66608;DHT22;53462;39.616;8.824;2022-08-06T12:22:59;39.80;30.20
66608;DHT22;53462;39.616;8.824;2022-08-06T12:25:32;39.60;30.40
66608;DHT22;53462;39.616;8.824;2022-08-06T12:27:59;39.50;30.80
66608;DHT22;53462;39.616;8.824;2022-08-06T12:30:26;39.80;31.30
66608;DHT22;53462;39.616;8.824;2022-08-06T12:33:02;39.90;30.40
66608;DHT22;53462;39.616;8.824;2022-08-06T12:35:28;39.90;32.00
66608;DHT22;53462;39.616;8.824;2022-08-06T12:37:54;39.60;29.50
66608;DHT22;53462;39.616;8.824;2022-08-06T12:40:21;39.20;32.80
66608;DHT22;53462;39.616;8.824;2022-08-06T12:45:30;39.50;31.40
66608;DHT22;53462;39.616;8.824;2022-08-06T12:48:02;39.50;32.10
66608;DHT22;53462;39.616;8.824;2022-08-06T12:50:29;39.30;30.20
66608;DHT22;53462;39.616;8.824;2022-08-06T12:53:09;39.20;30.20
66608;DHT22;53462;39.616;8.824;2022-08-06T12:55:46;39.20;31.30
66608;DHT22;53462;39.616;8.824;2022-08-06T12:58:15;39.00;32.50
66608;DHT22;53462;39.616;8.824;2022-08-06T13:00:50;38.90;32.80
66608;DHT22;53462;39.616;8.824;2022-08-06T13:03:18;38.70;32.40
66608;DHT22;53462;39.616;8.824;2022-08-06T13:05:46;38.50;32.90
66608;DHT22;53462;39.616;8.824;2022-08-06T13:08:13;38.40;33.30
66608;DHT22;53462;39.616;8.824;2022-08-06T13:10:50;38.40;33.00
66608;DHT22;53462;39.616;8.824;2022-08-06T13:13:17;38.40;34.10
66608;DHT22;53462;39.616;8.824;2022-08-06T13:16:05;38.40;34.10
66608;DHT22;53462;39.616;8.824;2022-08-06T13:18:31;38.10;33.90
66608;DHT22;53462;39.616;8.824;2022-08-06T13:20:57;38.30;34.40
66608;DHT22;53462;39.616;8.824;2022-08-06T13:25:54;38.00;34.80
66608;DHT22;53462;39.616;8.824;2022-08-06T13:28:23;37.90;36.30
66608;DHT22;53462;39.616;8.824;2022-08-06T13:30:50;37.70;36.10
66608;DHT22;53462;39.616;8.824;2022-08-06T13:33:23;37.80;34.70
66608;DHT22;53462;39.616;8.824;2022-08-06T13:36:05;37.70;34.00
66608;DHT22;53462;39.616;8.824;2022-08-06T13:38:32;37.60;35.30
66608;DHT22;53462;39.616;8.824;2022-08-06T13:40:59;37.60;34.90
66608;DHT22;53462;39.616;8.824;2022-08-06T13:46:12;37.40;33.90
66608;DHT22;53462;39.616;8.824;2022-08-06T13:48:48;37.20;32.90
66608;DHT22;53462;39.616;8.824;2022-08-06T13:51:17;36.90;35.70
66608;DHT22;53462;39.616;8.824;2022-08-06T13:53:44;36.80;36.40
66608;DHT22;53462;39.616;8.824;2022-08-06T13:56:10;36.90;37.00
66608;DHT22;53462;39.616;8.824;2022-08-06T13:58:36;36.90;37.50
66608;DHT22;53462;39.616;8.824;2022-08-06T14:01:02;36.90;36.80
66608;DHT22;53462;39.616;8.824;2022-08-06T14:03:28;36.70;39.40
66608;DHT22;53462;39.616;8.824;2022-08-06T14:05:54;36.50;40.30
66608;DHT22;53462;39.616;8.824;2022-08-06T14:08:20;36.70;40.50
66608;DHT22;53462;39.616;8.824;2022-08-06T14:10:46;36.70;39.80
66608;DHT22;53462;39.616;8.824;2022-08-06T14:13:12;36.50;39.60
66608;DHT22;53462;39.616;8.824;2022-08-06T14:15:46;36.60;39.50
66608;DHT22;53462;39.616;8.824;2022-08-06T14:18:14;36.70;38.50
66608;DHT22;53462;39.616;8.824;2022-08-06T14:20:43;36.30;37.40
66608;DHT22;53462;39.616;8.824;2022-08-06T14:23:10;36.20;39.10
66608;DHT22;53462;39.616;8.824;2022-08-06T14:25:36;36.20;40.60
66608;DHT22;53462;39.616;8.824;2022-08-06T14:28:03;36.10;39.10
66608;DHT22;53462;39.616;8.824;2022-08-06T14:30:31;36.10;39.10
66608;DHT22;53462;39.616;8.824;2022-08-06T14:32:58;36.00;39.60
66608;DHT22;53462;39.616;8.824;2022-08-06T14:35:26;35.90;39.10
66608;DHT22;53462;39.616;8.824;2022-08-06T14:37:52;35.80;40.60
66608;DHT22;53462;39.616;8.824;2022-08-06T14:40:21;35.60;40.40
66608;DHT22;53462;39.616;8.824;2022-08-06T14:43:07;35.50;41.70
66608;DHT22;53462;39.616;8.824;2022-08-06T14:45:51;35.40;40.90
66608;DHT22;53462;39.616;8.824;2022-08-06T14:48:17;35.30;39.40
66608;DHT22;53462;39.616;8.824;2022-08-06T14:50:43;35.60;40.70
66608;DHT22;53462;39.616;8.824;2022-08-06T14:53:09;35.50;41.20
66608;DHT22;53462;39.616;8.824;2022-08-06T14:55:36;35.50;40.80
66608;DHT22;53462;39.616;8.824;2022-08-06T14:58:02;35.10;41.00
66608;DHT22;53462;39.616;8.824;2022-08-06T15:00:28;34.90;41.70
66608;DHT22;53462;39.616;8.824;2022-08-06T15:02:54;34.90;42.30
66608;DHT22;53462;39.616;8.824;2022-08-06T15:05:20;34.90;42.40
66608;DHT22;53462;39.616;8.824;2022-08-06T15:07:45;34.70;42.30
66608;DHT22;53462;39.616;8.824;2022-08-06T15:10:11;34.60;42.60
66608;DHT22;53462;39.616;8.824;2022-08-06T15:12:37;34.70;44.00
66608;DHT22;53462;39.616;8.824;2022-08-06T15:15:04;34.60;43.90
66608;DHT22;53462;39.616;8.824;2022-08-06T15:17:31;34.80;44.20
66608;DHT22;53462;39.616;8.824;2022-08-06T15:19:57;34.70;44.10
66608;DHT22;53462;39.616;8.824;2022-08-06T15:22:23;34.40;43.80
66608;DHT22;53462;39.616;8.824;2022-08-06T15:24:49;34.20;46.10
66608;DHT22;53462;39.616;8.824;2022-08-06T15:27:15;34.30;44.30
66608;DHT22;53462;39.616;8.824;2022-08-06T15:29:48;34.20;45.70
66608;DHT22;53462;39.616;8.824;2022-08-06T15:32:14;34.10;44.70
66608;DHT22;53462;39.616;8.824;2022-08-06T15:34:41;34.00;44.70
66608;DHT22;53462;39.616;8.824;2022-08-06T15:37:07;33.90;45.20
66608;DHT22;53462;39.616;8.824;2022-08-06T15:39:34;33.80;45.10
66608;DHT22;53462;39.616;8.824;2022-08-06T15:42:00;33.70;46.60
66608;DHT22;53462;39.616;8.824;2022-08-06T15:44:26;33.60;44.40
66608;DHT22;53462;39.616;8.824;2022-08-06T15:46:52;33.60;45.90
66608;DHT22;53462;39.616;8.824;2022-08-06T15:49:18;33.60;45.80
66608;DHT22;53462;39.616;8.824;2022-08-06T15:51:45;33.40;47.50
66608;DHT22;53462;39.616;8.824;2022-08-06T15:54:11;33.50;47.30
66608;DHT22;53462;39.616;8.824;2022-08-06T15:56:37;33.40;47.60
66608;DHT22;53462;39.616;8.824;2022-08-06T15:59:03;33.40;47.30
66608;DHT22;53462;39.616;8.824;2022-08-06T16:01:30;33.30;46.20
66608;DHT22;53462;39.616;8.824;2022-08-06T16:03:56;33.30;45.30
66608;DHT22;53462;39.616;8.824;2022-08-06T16:06:22;33.30;45.40
66608;DHT22;53462;39.616;8.824;2022-08-06T16:08:48;33.40;45.80
66608;DHT22;53462;39.616;8.824;2022-08-06T16:11:15;33.40;45.30
66608;DHT22;53462;39.616;8.824;2022-08-06T16:13:41;33.30;46.30
66608;DHT22;53462;39.616;8.824;2022-08-06T16:16:07;33.30;45.70
66608;DHT22;53462;39.616;8.824;2022-08-06T16:18:33;33.10;46.10
66608;DHT22;53462;39.616;8.824;2022-08-06T16:21:00;33.00;46.00
66608;DHT22;53462;39.616;8.824;2022-08-06T16:23:27;32.90;46.40
66608;DHT22;53462;39.616;8.824;2022-08-06T16:25:53;32.70;45.50
66608;DHT22;53462;39.616;8.824;2022-08-06T16:28:19;32.80;45.60
66608;DHT22;53462;39.616;8.824;2022-08-06T16:30:45;32.70;46.10
66608;DHT22;53462;39.616;8.824;2022-08-06T16:33:11;32.70;46.40
66608;DHT22;53462;39.616;8.824;2022-08-06T16:35:37;32.70;46.40
66608;DHT22;53462;39.616;8.824;2022-08-06T16:38:03;32.50;46.60
66608;DHT22;53462;39.616;8.824;2022-08-06T16:40:29;32.30;48.60
66608;DHT22;53462;39.616;8.824;2022-08-06T16:42:56;32.40;48.10
66608;DHT22;53462;39.616;8.824;2022-08-06T16:45:23;32.20;48.60
66608;DHT22;53462;39.616;8.824;2022-08-06T16:47:51;32.20;48.30
66608;DHT22;53462;39.616;8.824;2022-08-06T16:50:18;32.00;48.70
66608;DHT22;53462;39.616;8.824;2022-08-06T16:52:44;31.90;49.60
66608;DHT22;53462;39.616;8.824;2022-08-06T16:55:11;31.80;49.80
66608;DHT22;53462;39.616;8.824;2022-08-06T16:57:37;31.90;50.30